Latest  Newer  Older  Last 2 hours slideshow  Last 24 hours slideshow  Refresh every 5 minutes 
Current image  Latest image  Rain/snow radar  Cloud coverage sat images 

All time is UTC (add 2 hours to UTC in wintertime, 3 hours to UTC in DST for Latvia local time)

2019/11/14 08:50 EVRA 140850Z 17017KT 9999 FEW016 BKN036 BKN044 12/10 Q1007 R18/290195 NOSIG
2019/11/14 08:50 EVLA 140850Z AUTO 25010KT 9999 BKN006/// BKN012/// 09/09 Q1006
2019/11/14 08:50 EVVA 140850Z AUTO 20016KT 9999 BKN010 OVC018 11/10 Q1004
2019/11/14 08:50 EYKA 140850Z 16007KT 120V210 9999 OVC017 12/10 Q1010 R08/290095
2019/11/14 08:50 EYPA 140850Z 26005KT 200V330 9999 BKN008 09/08 Q1008 R19/1///95
2019/11/14 08:50 EYSA 140850Z 17012KT 8000 SCT012 BKN014 OVC023 12/10 Q1008 R14L/29//95 R14R/29//95 GRN NOSIG
2019/11/14 08:50 EYVI 140850Z 16012KT 9000 OVC008 10/09 Q1011 R19/2///95 NOSIG
2019/11/14 08:50 EEKA 140850Z 16014KT 5000 BR OVC007 10/09 Q1002
2019/11/14 08:50 EEKE 140850Z 16016KT 6000 BKN023 OVC030 10/09 Q1003
2019/11/14 08:50 EEPU 140850Z 17009G20KT 120V220 8000 OVC017 11/10 Q1005
2019/11/14 08:50 EETN 140850Z 17012KT 7000 OVC010 10/09 Q1004 R08/290195 NOSIG
2019/11/14 08:50 EETU 140850Z 16010KT 9999 BKN016 OVC022 10/07 Q1008
   RIGA AIRPORT     EVRA               56 55N  023 58E   10   X     T          6 LV
   LIEPAJA INTL     EVLA        26406  56 31N  021 06E    4   X                8 LV
   VENTPILS         EVVA               57 21N  021 33E    6   X                8 LV
   KAUNAS           EYKA               54 54N  023 55E   77   X     T          6 LT
   PALANGA INTL     EYPA               55 55N  021 03E   10   X                6 LT
   SIAULIAI INTL    EYSA               55 54N  023 24E  135   X     T          6 LT
   VILNIUS INTL     EYVI        26730  54 38N  025 17E  197   X     T          6 LT
   KARDLA           EEKA        26116  58 59N  022 50E    4   X                8 EE
   KURESSAARE       EEKE               58 14N  022 31E    4   X                8 EE
   PARNU            EEPU               58 25N  024 28E   14   X                8 EE
   TALLINN          EETN        26038  59 24N  024 49E   40   X     T          8 EE
   TARTU            EETU               58 19N  026 41E   67   X                8 EE